createdAt,value
2022-09-12T00:02:44.496Z,991.1
2022-09-12T00:08:03.925Z,991
2022-09-12T00:13:23.270Z,991.1
2022-09-12T00:21:56.323Z,991.1
2022-09-12T00:24:01.696Z,991
2022-09-12T00:29:21.114Z,990.9
2022-09-12T00:34:40.603Z,990.9
2022-09-12T00:39:59.848Z,990.9
2022-09-12T00:45:18.874Z,990.8
2022-09-12T00:50:38.618Z,990.8
2022-09-12T00:55:58.134Z,990.8
2022-09-12T01:01:17.404Z,990.8
2022-09-12T01:06:36.455Z,990.7
2022-09-12T01:15:09.505Z,990.7
2022-09-12T01:22:34.624Z,990.6
2022-09-12T01:27:53.906Z,990.6
2022-09-12T01:32:10.605Z,990.6
2022-09-12T01:36:43.228Z,990.5
2022-09-12T01:45:16.314Z,990.6
2022-09-12T01:49:49.998Z,990.6
2022-09-12T01:58:23.067Z,990.5
2022-09-12T02:00:27.939Z,990.5
2022-09-12T02:05:47.034Z,990.5
2022-09-12T02:11:06.000Z,990.4
2022-09-12T02:16:25.078Z,990.4
2022-09-12T02:21:43.895Z,990.3
2022-09-12T02:30:16.960Z,990.4
2022-09-12T02:34:33.505Z,990.4
2022-09-12T02:38:50.034Z,990.4
2022-09-12T02:43:02.533Z,990.3
2022-09-12T02:48:21.532Z,990.3
2022-09-12T02:53:40.510Z,990.3
2022-09-12T02:59:00.040Z,990.3
2022-09-12T03:04:18.923Z,990.3
2022-09-12T03:09:38.199Z,990.3
2022-09-12T03:14:57.427Z,990.2
2022-09-12T03:20:16.432Z,990.3
2022-09-12T03:25:35.670Z,990.3
2022-09-12T03:34:08.774Z,990.3
2022-09-12T03:38:25.285Z,990.2
2022-09-12T03:42:41.801Z,990.4
2022-09-12T03:46:52.301Z,990.3
2022-09-12T03:52:11.902Z,990.4
2022-09-12T03:57:31.188Z,990.3
2022-09-12T04:02:50.391Z,990.4
2022-09-12T04:08:09.706Z,990.4
2022-09-12T04:13:29.273Z,990.4
2022-09-12T04:22:02.327Z,990.3
2022-09-12T04:24:07.122Z,990.3
2022-09-12T04:29:26.735Z,990.3
2022-09-12T04:34:45.835Z,990.3
2022-09-12T04:40:04.793Z,990.2
2022-09-12T04:45:24.304Z,990.3
2022-09-12T04:50:44.028Z,990.3
2022-09-12T04:56:02.995Z,990.2
2022-09-12T05:01:22.085Z,990.3
2022-09-12T05:06:41.545Z,990.4
2022-09-12T05:15:14.616Z,990.4
2022-09-12T05:19:31.156Z,990.3
2022-09-12T05:23:47.696Z,990.4
2022-09-12T05:33:17.627Z,990.4
2022-09-12T05:38:36.964Z,990.4
2022-09-12T05:44:07.164Z,990.5
2022-09-12T05:49:15.810Z,990.5
2022-09-12T05:54:35.050Z,990.5
2022-09-12T05:59:54.585Z,990.6
2022-09-12T06:05:14.886Z,990.6
2022-09-12T06:10:33.756Z,990.6
2022-09-12T06:15:53.024Z,990.6
2022-09-12T06:21:12.634Z,990.6
2022-09-12T06:26:32.015Z,990.6
2022-09-12T06:31:50.973Z,990.6
2022-09-12T06:37:10.422Z,990.5
2022-09-12T06:42:39.754Z,990.5
2022-09-12T06:47:48.799Z,990.5
2022-09-12T06:53:07.631Z,990.5
2022-09-12T06:58:27.092Z,990.5
2022-09-12T07:03:45.925Z,990.5
2022-09-12T07:09:04.744Z,990.5
2022-09-12T07:14:23.773Z,990.5
2022-09-12T07:19:43.208Z,990.5
2022-09-12T07:25:02.036Z,990.5
2022-09-12T07:30:20.715Z,990.5
2022-09-12T07:35:40.459Z,990.6
2022-09-12T07:40:59.308Z,990.5
2022-09-12T07:46:18.614Z,990.5
2022-09-12T07:51:37.755Z,990.5
2022-09-12T08:00:10.825Z,990.5
2022-09-12T08:04:27.355Z,990.5
2022-09-12T08:08:43.885Z,990.5
2022-09-12T08:13:00.401Z,990.5
2022-09-12T08:18:13.935Z,990.4
2022-09-12T08:23:32.977Z,990.4
2022-09-12T08:32:06.042Z,990.4
2022-09-12T08:34:11.420Z,990.3
2022-09-12T08:44:49.302Z,990.3
2022-09-12T08:53:22.359Z,990.2
2022-09-12T09:01:55.506Z,990.1
2022-09-12T09:11:25.111Z,990.1
2022-09-12T09:16:44.654Z,990.2
2022-09-12T09:22:04.200Z,990
2022-09-12T09:27:39.720Z,989.9
2022-09-12T09:35:56.027Z,989.9
2022-09-12T09:43:19.544Z,989.7
2022-09-12T09:48:39.096Z,989.7
2022-09-12T09:53:58.071Z,989.7
2022-09-12T09:59:17.015Z,989.6
2022-09-12T10:07:50.024Z,989.6
2022-09-12T10:09:55.125Z,989.6
2022-09-12T10:20:32.674Z,989.4
2022-09-12T10:25:51.849Z,989.4
2022-09-12T10:34:24.862Z,989.3
2022-09-12T10:38:41.393Z,989.4
2022-09-12T10:41:49.514Z,989.3
2022-09-12T10:52:27.742Z,989.2
2022-09-12T10:57:46.813Z,989.2
2022-09-12T11:03:05.882Z,989.1
2022-09-12T11:08:25.229Z,989
2022-09-12T11:13:44.271Z,989
2022-09-12T11:19:03.838Z,988.9
2022-09-12T11:24:22.732Z,988.9
2022-09-12T11:29:41.834Z,988.9
2022-09-12T11:35:00.792Z,988.9
2022-09-12T11:40:19.529Z,988.7
2022-09-12T11:45:38.931Z,988.7
2022-09-12T11:54:11.924Z,988.7
2022-09-12T11:58:28.448Z,988.7
2022-09-12T12:02:45.122Z,988.6
2022-09-12T12:06:56.288Z,988.7
2022-09-12T12:12:15.764Z,988.6
2022-09-12T12:17:34.821Z,988.5
2022-09-12T12:22:54.070Z,988.4
2022-09-12T12:28:12.880Z,988.4
2022-09-12T12:33:32.483Z,988.4
2022-09-12T12:42:05.543Z,988.3
2022-09-12T12:49:29.822Z,988.2
2022-09-12T12:54:48.485Z,988.1
2022-09-12T13:00:08.038Z,988.1
2022-09-12T13:05:26.708Z,988.2
2022-09-12T13:10:48.454Z,988
2022-09-12T13:16:05.313Z,988
2022-09-12T13:24:38.329Z,987.8
2022-09-12T13:32:03.164Z,987.7
2022-09-12T13:37:22.451Z,987.6
2022-09-12T13:42:42.026Z,987.6
2022-09-12T13:53:20.690Z,987.6
2022-09-12T13:58:39.549Z,987.6
2022-09-12T14:03:59.027Z,987.6
2022-09-12T14:09:19.007Z,987.4
2022-09-12T14:14:36.439Z,987.4
2022-09-12T14:19:55.938Z,987.4
2022-09-12T14:25:15.663Z,987.4
2022-09-12T14:30:34.605Z,987.4
2022-09-12T14:35:53.367Z,987.3
2022-09-12T14:41:12.499Z,987.2
2022-09-12T14:46:44.024Z,987.2
2022-09-12T14:51:51.739Z,987.1
2022-09-12T14:57:10.902Z,987.1
2022-09-12T15:05:43.949Z,987
2022-09-12T15:07:49.774Z,987
2022-09-12T15:13:09.002Z,987
2022-09-12T15:18:28.398Z,987.1
2022-09-12T15:23:48.036Z,987
2022-09-12T15:29:06.937Z,987
2022-09-12T15:34:25.876Z,987
2022-09-12T15:39:45.066Z,986.9
2022-09-12T15:45:04.195Z,987
2022-09-12T15:50:23.074Z,986.9
2022-09-12T15:55:42.265Z,986.8
2022-09-12T16:01:01.349Z,986.7
2022-09-12T16:06:20.372Z,986.7
2022-09-12T16:11:39.116Z,986.7
2022-09-12T16:16:58.363Z,986.5
2022-09-12T16:22:17.540Z,986.5
2022-09-12T16:27:36.911Z,986.6
2022-09-12T16:32:56.529Z,986.5
2022-09-12T16:38:15.491Z,986.4
2022-09-12T16:43:34.915Z,986.4
2022-09-12T16:48:54.626Z,986.3
2022-09-12T16:54:13.094Z,986.3
2022-09-12T16:59:32.603Z,986.2
2022-09-12T17:04:51.994Z,986.3
2022-09-12T17:10:11.505Z,986.3
2022-09-12T17:15:30.927Z,986.2
2022-09-12T17:20:50.203Z,986.3
2022-09-12T17:29:23.275Z,986.3
2022-09-12T17:36:47.498Z,986.4
2022-09-12T17:42:06.883Z,986.4
2022-09-12T17:47:25.668Z,986.5
2022-09-12T17:52:45.289Z,986.6
2022-09-12T17:58:04.649Z,986.6
2022-09-12T18:03:23.654Z,986.5
2022-09-12T18:08:42.462Z,986.7
2022-09-12T18:14:01.819Z,986.7
2022-09-12T18:19:21.201Z,986.8
2022-09-12T18:24:40.721Z,986.8
2022-09-12T18:30:19.899Z,986.8
2022-09-12T18:35:18.316Z,986.8
2022-09-12T18:40:37.067Z,986.7
2022-09-12T18:45:56.191Z,986.6
2022-09-12T18:51:15.654Z,986.8
2022-09-12T18:56:35.331Z,986.8
2022-09-12T19:01:54.266Z,986.8
2022-09-12T19:07:12.977Z,986.7
2022-09-12T19:17:51.458Z,986.7
2022-09-12T19:23:10.197Z,986.7
2022-09-12T19:28:29.564Z,986.8
2022-09-12T19:33:48.564Z,986.8
2022-09-12T19:39:08.136Z,986.7
2022-09-12T19:44:27.845Z,986.7
2022-09-12T19:49:46.928Z,986.6
2022-09-12T19:58:20.897Z,986.6
2022-09-12T19:58:50.996Z,986.6
2022-09-12T20:04:06.974Z,986.6
2022-09-12T20:09:26.267Z,986.6
2022-09-12T20:20:04.619Z,986.6
2022-09-12T20:25:24.019Z,986.6
2022-09-12T20:30:43.271Z,986.6
2022-09-12T20:36:02.491Z,986.5
2022-09-12T20:41:21.343Z,986.4
2022-09-12T20:46:40.467Z,986.5
2022-09-12T20:52:00.065Z,986.5
2022-09-12T20:57:19.388Z,986.5
2022-09-12T21:02:38.905Z,986.4
2022-09-12T21:07:58.233Z,986.4
2022-09-12T21:13:17.042Z,986.3
2022-09-12T21:18:36.762Z,986.3
2022-09-12T21:23:55.845Z,986.3
2022-09-12T21:29:14.774Z,986.2
2022-09-12T21:34:33.892Z,986.3
2022-09-12T21:39:53.083Z,986.3
2022-09-12T21:45:11.859Z,986.3
2022-09-12T21:50:31.293Z,986.3
2022-09-12T21:59:04.342Z,986.2
2022-09-12T22:03:20.854Z,986.2
2022-09-12T22:07:37.393Z,986.1
2022-09-12T22:11:47.210Z,986
2022-09-12T22:17:06.125Z,986.1
2022-09-12T22:22:25.532Z,986
2022-09-12T22:27:45.297Z,985.9
2022-09-12T22:33:04.377Z,985.8
2022-09-12T22:38:24.019Z,985.7
2022-09-12T22:43:43.442Z,985.8
2022-09-12T22:49:02.609Z,985.8
2022-09-12T22:54:22.174Z,985.8
2022-09-12T23:02:55.316Z,985.8
2022-09-12T23:11:28.301Z,985.8
2022-09-12T23:15:44.851Z,985.8
2022-09-12T23:20:57.124Z,985.8
2022-09-12T23:26:16.336Z,985.8
2022-09-12T23:31:36.113Z,985.8
2022-09-12T23:40:09.166Z,985.7
2022-09-12T23:47:33.146Z,985.7
2022-09-12T23:52:52.596Z,985.7
2022-09-12T23:58:11.549Z,985.6
